Time;durP1;ratioP1;P1;durP2;ratioP2;P2;SDS_P1;SDS_P2;PMS_P1;PMS_P2;Temp;Humidity;BMP_temperature;BMP_pressure;BME280_temperature;BME280_humidity;BME280_pressure;Samples;Min_cycle;Max_cycle;Signal;HPM_P1;HPM_P2
2022/06/09 00:01:06;;;;;;;9.75;7.12;;;;;;;20.15;71.05;98932.44;4362323;32;34131;-69
2022/06/09 00:03:59;;;;;;;9.50;7.03;;;;;;;20.02;71.78;98929.59;4362009;32;34741;-68
2022/06/09 00:06:32;;;;;;;10.70;6.50;;;;;;;19.87;72.45;98927.41;4361949;32;34276;-66
2022/06/09 00:09:02;;;;;;;8.27;6.47;;;;;;;20.04;71.58;98934.75;4348616;32;33353;-70
2022/06/09 00:11:29;;;;;;;9.85;7.82;;;;;;;19.77;72.52;98931.31;4362361;32;33723;-68
2022/06/09 00:13:57;;;;;;;12.23;8.40;;;;;;;18.74;77.30;98933.06;4348650;32;33976;-67
2022/06/09 00:16:24;;;;;;;10.55;8.15;;;;;;;18.25;80.79;98933.19;4361756;32;34248;-66
2022/06/09 00:18:51;;;;;;;10.43;7.75;;;;;;;18.73;78.61;98942.47;4362196;32;33303;-67
2022/06/09 00:21:21;;;;;;;11.30;8.00;;;;;;;18.98;77.39;98944.41;4362146;32;33592;-68
2022/06/09 00:23:49;;;;;;;11.63;7.60;;;;;;;19.23;76.39;98936.47;4361694;32;34185;-68
2022/06/09 00:26:16;;;;;;;10.15;7.57;;;;;;;19.55;74.76;98937.06;4362008;32;33915;-70
2022/06/09 00:28:44;;;;;;;10.68;7.70;;;;;;;19.80;72.60;98941.66;4361797;32;33507;-69
2022/06/09 00:31:11;;;;;;;9.55;7.28;;;;;;;19.93;71.47;98939.03;4362182;32;34540;-68
2022/06/09 00:33:39;;;;;;;9.68;7.28;;;;;;;19.77;71.90;98930.53;4362184;32;35037;-71
2022/06/09 00:36:06;;;;;;;9.77;7.10;;;;;;;19.39;73.70;98926.53;4361972;32;34189;-68
2022/06/09 00:38:34;;;;;;;9.85;6.90;;;;;;;19.59;73.14;98933.31;4361028;32;34335;-69
2022/06/09 00:41:02;;;;;;;9.68;6.75;;;;;;;19.60;72.88;98926.66;4362103;32;32767;-69
2022/06/09 00:43:30;;;;;;;8.70;6.97;;;;;;;19.53;73.27;98928.31;4361999;32;35011;-68
2022/06/09 00:46:10;;;;;;;9.68;6.50;;;;;;;19.53;73.20;98931.06;4361754;32;34240;-70
2022/06/09 00:48:47;;;;;;;10.38;6.95;;;;;;;19.45;73.70;98927.19;4361134;32;33270;-69
2022/06/09 00:51:52;;;;;;;9.73;6.75;;;;;;;19.40;73.96;98925.44;4352368;32;33830;-70
2022/06/09 00:54:24;;;;;;;10.25;7.00;;;;;;;19.40;73.79;98922.69;4348057;32;34084;-68
2022/06/09 00:57:00;;;;;;;9.95;7.32;;;;;;;19.35;74.21;98930.28;4361557;32;35590;-68
2022/06/09 00:59:28;;;;;;;8.20;6.55;;;;;;;19.32;74.41;98923.50;4362076;32;33354;-68
2022/06/09 01:01:59;;;;;;;10.88;7.70;;;;;;;19.42;74.02;98931.41;4361662;32;34091;-68
2022/06/09 01:04:26;;;;;;;9.98;7.25;;;;;;;19.59;72.96;98935.22;4361825;32;33802;-67
2022/06/09 01:07:02;;;;;;;10.40;7.55;;;;;;;19.67;72.39;98940.72;4360934;32;34354;-66
2022/06/09 01:09:31;;;;;;;9.27;7.37;;;;;;;19.85;71.79;98932.44;4361541;32;33389;-66
2022/06/09 01:11:59;;;;;;;10.27;7.50;;;;;;;19.48;73.29;98934.78;4361707;32;33764;-70
2022/06/09 01:14:32;;;;;;;10.27;7.35;;;;;;;19.53;73.22;98920.06;4361789;32;35065;-69
2022/06/09 01:17:19;;;;;;;10.83;7.33;;;;;;;19.51;73.56;98930.59;4347875;32;34997;-67
2022/06/09 01:20:04;;;;;;;9.80;7.68;;;;;;;19.38;74.11;98924.94;4361569;32;33690;-66
2022/06/09 01:22:50;;;;;;;10.43;8.02;;;;;;;18.61;78.13;98924.66;4348129;32;34010;-70
2022/06/09 01:25:31;;;;;;;12.27;8.70;;;;;;;17.98;82.77;98920.50;4361716;32;34939;-70
2022/06/09 01:28:17;;;;;;;10.05;7.78;;;;;;;18.51;80.67;98922.25;4347508;32;34229;-67
2022/06/09 01:30:59;;;;;;;9.63;7.35;;;;;;;19.22;76.26;98916.41;4346730;33;33497;-69
2022/06/09 01:33:41;;;;;;;9.25;6.97;;;;;;;19.46;74.75;98909.56;4333468;33;33665;-68
2022/06/09 01:36:46;;;;;;;10.43;7.47;;;;;;;19.33;75.10;98903.13;4345192;33;33981;-69
2022/06/09 01:39:14;;;;;;;10.07;8.00;;;;;;;19.70;73.40;98908.19;4346448;33;33792;-67
2022/06/09 01:41:47;;;;;;;10.55;7.40;;;;;;;19.70;73.10;98910.94;4346278;33;33743;-69
2022/06/09 01:44:17;;;;;;;9.52;7.37;;;;;;;19.31;75.03;98907.31;4354649;32;33979;-68
2022/06/09 01:46:46;;;;;;;10.35;7.50;;;;;;;19.17;75.88;98904.78;4347802;32;34286;-67
2022/06/09 01:49:18;;;;;;;9.57;7.43;;;;;;;19.40;75.03;98906.19;4347778;32;34138;-70
2022/06/09 01:51:46;;;;;;;10.30;7.20;;;;;;;19.39;75.22;98910.03;4347490;32;34580;-67
2022/06/09 01:54:20;;;;;;;8.73;6.87;;;;;;;19.36;75.34;98907.16;4361160;32;34018;-68
2022/06/09 01:56:52;;;;;;;9.43;6.85;;;;;;;19.03;77.15;98903.03;4347531;32;33731;-67
2022/06/09 01:59:28;;;;;;;9.27;7.45;;;;;;;19.57;74.75;98910.81;4347745;32;34275;-68
2022/06/09 02:02:02;;;;;;;9.55;7.37;;;;;;;19.76;73.48;98918.72;4347789;32;33321;-70
2022/06/09 02:04:33;;;;;;;10.05;7.20;;;;;;;19.66;73.86;98908.03;4347543;32;34032;-69
2022/06/09 02:07:03;;;;;;;9.13;7.30;;;;;;;19.68;73.53;98911.25;4347125;32;33939;-70
2022/06/09 02:09:32;;;;;;;9.45;7.07;;;;;;;19.73;73.25;98905.59;4349529;32;35227;-66
2022/06/09 02:12:12;;;;;;;9.75;7.00;;;;;;;19.79;73.09;98925.50;4349724;32;33743;-70
2022/06/09 02:14:47;;;;;;;9.88;7.35;;;;;;;19.91;72.86;98922.03;4350164;32;33956;-70
2022/06/09 02:17:15;;;;;;;10.98;8.10;;;;;;;20.03;72.39;98919.37;4349028;32;34977;-67
2022/06/09 02:19:43;;;;;;;10.20;7.72;;;;;;;20.07;72.14;98912.09;4362852;32;34124;-70
2022/06/09 02:22:12;;;;;;;10.30;7.72;;;;;;;20.11;72.11;98910.28;4349217;32;34481;-70
2022/06/09 02:24:39;;;;;;;10.20;7.47;;;;;;;19.96;72.65;98911.66;4362957;32;33682;-67
2022/06/09 02:27:08;;;;;;;10.57;7.40;;;;;;;19.54;74.44;98908.72;4362422;32;34086;-71
2022/06/09 02:29:35;;;;;;;10.05;7.72;;;;;;;19.36;75.30;98912.66;4362756;32;35106;-70
2022/06/09 02:32:03;;;;;;;9.95;7.53;;;;;;;18.98;77.13;98913.38;4362934;32;33477;-68
2022/06/09 02:34:30;;;;;;;9.57;7.55;;;;;;;18.75;78.55;98918.22;4362571;32;34616;-65
2022/06/09 02:37:00;;;;;;;10.57;7.80;;;;;;;19.11;77.35;98917.88;4361897;32;33954;-67
2022/06/09 02:39:27;;;;;;;11.30;7.43;;;;;;;19.05;77.40;98916.44;4362799;32;34129;-68
2022/06/09 02:41:55;;;;;;;10.30;6.97;;;;;;;19.22;76.81;98904.59;4362742;32;33877;-70
2022/06/09 02:44:22;;;;;;;10.10;7.97;;;;;;;19.52;75.56;98913.72;4362499;32;33976;-70
2022/06/09 02:46:50;;;;;;;9.70;7.60;;;;;;;19.67;74.57;98917.88;4362514;32;33978;-67
2022/06/09 02:49:17;;;;;;;10.63;7.70;;;;;;;19.79;73.99;98922.75;4362296;32;33812;-68
2022/06/09 02:51:45;;;;;;;9.68;7.32;;;;;;;19.41;75.65;98917.97;4362528;32;34516;-69
2022/06/09 02:54:12;;;;;;;12.48;7.87;;;;;;;19.29;76.21;98915.91;4362836;32;33988;-70
2022/06/09 02:56:42;;;;;;;10.88;8.07;;;;;;;18.54;81.04;98924.34;4362207;32;34038;-70
2022/06/09 02:59:10;;;;;;;10.70;7.87;;;;;;;19.16;77.44;98923.22;4362706;32;34717;-70
2022/06/09 03:01:38;;;;;;;11.85;8.70;;;;;;;19.09;77.39;98931.12;4362774;32;34701;-69
2022/06/09 03:04:07;;;;;;;11.02;8.43;;;;;;;18.99;78.39;98917.75;4362751;32;33669;-67
2022/06/09 03:06:35;;;;;;;12.45;8.18;;;;;;;19.17;77.85;98919.31;4361762;32;34131;-70
2022/06/09 03:09:03;;;;;;;13.15;9.40;;;;;;;18.98;79.21;98922.41;4362355;32;33905;-68
2022/06/09 03:11:31;;;;;;;11.10;8.63;;;;;;;18.95;79.48;98928.56;4362742;32;33372;-67
2022/06/09 03:13:59;;;;;;;11.73;8.85;;;;;;;19.14;78.46;98917.25;4356659;32;34666;-66
2022/06/09 03:16:26;;;;;;;14.95;9.02;;;;;;;19.15;78.72;98916.09;4361925;32;35371;-67
2022/06/09 03:18:54;;;;;;;11.63;8.48;;;;;;;18.93;79.95;98921.78;4361491;32;35076;-69
2022/06/09 03:21:22;;;;;;;15.30;10.07;;;;;;;18.42;83.85;98921.41;4362173;32;34402;-67
2022/06/09 03:23:51;;;;;;;14.40;9.52;;;;;;;18.80;82.24;98920.81;4362435;32;33802;-68
2022/06/09 03:26:19;;;;;;;14.43;9.40;;;;;;;18.98;81.23;98922.41;4362095;32;34252;-68
2022/06/09 03:28:46;;;;;;;13.27;9.48;;;;;;;19.17;80.71;98915.78;4362117;32;34866;-69
2022/06/09 03:31:14;;;;;;;17.80;10.68;;;;;;;19.39;79.94;98918.28;4362447;32;33785;-70
2022/06/09 03:33:42;;;;;;;15.55;10.80;;;;;;;19.35;80.83;98914.62;4362499;32;34774;-70
2022/06/09 03:36:10;;;;;;;16.60;10.40;;;;;;;19.97;77.24;98918.75;4361805;32;34232;-67
2022/06/09 03:38:40;;;;;;;15.45;10.60;;;;;;;20.02;77.18;98921.34;4361990;32;33977;-67
2022/06/09 03:41:08;;;;;;;17.33;10.70;;;;;;;19.99;77.48;98924.75;4362475;32;33533;-71
2022/06/09 03:43:36;;;;;;;15.02;10.52;;;;;;;19.13;83.14;98923.84;4362413;32;34800;-69
2022/06/09 03:46:03;;;;;;;18.50;11.60;;;;;;;19.52;81.47;98919.22;4362066;32;35063;-71
2022/06/09 03:48:31;;;;;;;18.10;12.48;;;;;;;19.05;85.03;98928.25;4361858;32;34136;-78
2022/06/09 03:50:58;;;;;;;25.17;13.35;;;;;;;19.56;81.54;98922.94;4361557;32;33707;-75
2022/06/09 03:53:26;;;;;;;18.37;12.13;;;;;;;19.86;79.76;98912.81;4362232;32;33870;-75
2022/06/09 03:55:55;;;;;;;19.48;12.43;;;;;;;19.54;82.13;98916.16;4362042;32;34966;-76
2022/06/09 03:58:23;;;;;;;21.30;12.20;;;;;;;19.49;83.61;98919.09;4348305;32;34977;-68
2022/06/09 04:00:51;;;;;;;20.67;12.45;;;;;;;19.78;82.58;98919.16;4362146;32;33820;-79
2022/06/09 04:03:18;;;;;;;23.35;13.88;;;;;;;20.18;80.32;98916.06;4362323;32;33948;-76
2022/06/09 04:05:46;;;;;;;21.60;12.75;;;;;;;20.15;80.89;98919.50;4358967;32;33885;-67
2022/06/09 04:08:13;;;;;;;20.08;12.55;;;;;;;19.76;83.19;98924.22;4340593;32;33738;-79
2022/06/09 04:10:41;;;;;;;21.15;12.75;;;;;;;19.92;82.98;98913.44;4362119;32;33860;-78
2022/06/09 04:13:09;;;;;;;19.67;12.27;;;;;;;19.81;84.15;98915.75;4362444;32;34015;-78
2022/06/09 04:15:37;;;;;;;25.15;13.65;;;;;;;19.79;83.98;98917.25;4362027;32;34200;-78
2022/06/09 04:18:05;;;;;;;23.75;13.07;;;;;;;19.61;85.31;98916.44;4361543;32;34621;-78
2022/06/09 04:20:33;;;;;;;23.67;13.80;;;;;;;19.90;84.12;98914.94;4361451;32;34695;-78
2022/06/09 04:23:00;;;;;;;23.92;14.43;;;;;;;19.64;84.91;98918.56;4362000;32;34877;-79
2022/06/09 04:25:28;;;;;;;25.88;14.70;;;;;;;19.06;86.01;98918.84;4362215;32;34277;-68
2022/06/09 04:27:56;;;;;;;23.45;14.48;;;;;;;19.26;85.69;98911.87;4361753;32;34086;-79
2022/06/09 04:30:23;;;;;;;24.80;15.13;;;;;;;19.49;84.05;98917.16;4361756;32;34350;-78
2022/06/09 04:32:53;;;;;;;25.33;14.68;;;;;;;18.72;89.65;98914.16;4359625;32;97302;-68
2022/06/09 04:35:21;;;;;;;26.62;15.10;;;;;;;19.53;85.92;98923.63;4361088;32;34404;-75
2022/06/09 04:38:00;;;;;;;25.17;14.85;;;;;;;19.53;85.73;98925.56;4361207;32;34140;-66
2022/06/09 04:40:35;;;;;;;22.08;14.15;;;;;;;20.20;81.94;98935.00;4346716;32;33760;-65
2022/06/09 04:43:04;;;;;;;22.55;14.02;;;;;;;20.88;77.89;98940.38;4361546;32;34649;-72
2022/06/09 04:45:33;;;;;;;23.70;14.25;;;;;;;20.68;77.55;98944.78;4348039;32;34675;-65
2022/06/09 04:48:00;;;;;;;23.50;13.98;;;;;;;20.93;76.61;98947.66;4360518;32;35075;-65
2022/06/09 04:50:28;;;;;;;20.15;13.77;;;;;;;20.86;77.02;98951.78;4360765;32;34551;-66
2022/06/09 04:52:57;;;;;;;20.58;12.95;;;;;;;20.88;77.20;98956.94;4360981;32;34100;-74
2022/06/09 04:55:25;;;;;;;23.50;14.18;;;;;;;20.67;78.37;98952.25;4360390;32;35094;-77
2022/06/09 04:57:52;;;;;;;21.27;12.37;;;;;;;20.22;80.99;98947.31;4347822;32;34186;-71
2022/06/09 05:00:20;;;;;;;20.30;12.93;;;;;;;20.69;79.08;98958.22;4361228;32;33392;-70
2022/06/09 05:02:48;;;;;;;20.77;13.48;;;;;;;20.85;78.36;98954.84;4360334;32;33935;-68
2022/06/09 05:05:21;;;;;;;18.02;11.93;;;;;;;21.16;74.33;98956.37;4361227;32;34322;-67
2022/06/09 05:07:49;;;;;;;19.52;13.20;;;;;;;20.93;75.84;98951.22;4361147;32;34964;-68
2022/06/09 05:10:16;;;;;;;17.65;12.45;;;;;;;20.87;77.14;98956.13;4360293;32;34481;-68
2022/06/09 05:12:44;;;;;;;18.27;12.65;;;;;;;20.99;76.69;98951.81;4360897;32;34483;-72
2022/06/09 05:15:14;;;;;;;18.20;12.45;;;;;;;20.87;78.21;98958.88;4345164;32;35135;-69
2022/06/09 05:17:42;;;;;;;16.45;11.75;;;;;;;20.93;77.54;98951.22;4347324;32;34980;-74
2022/06/09 05:20:12;;;;;;;18.08;11.57;;;;;;;20.19;80.16;98953.47;4347062;32;34372;-75
2022/06/09 05:22:40;;;;;;;15.98;10.77;;;;;;;20.60;79.67;98953.91;4347296;32;34091;-74
2022/06/09 05:25:09;;;;;;;13.68;10.00;;;;;;;20.47;78.76;98959.31;4346854;32;35146;-74
2022/06/09 05:27:36;;;;;;;12.73;9.50;;;;;;;20.40;80.09;98964.53;4360662;32;33762;-75
2022/06/09 05:30:06;;;;;;;12.05;9.00;;;;;;;20.99;76.81;98969.19;4358776;32;33733;-67
2022/06/09 05:32:33;;;;;;;10.07;7.70;;;;;;;21.27;73.08;98971.34;4361225;32;33925;-68
2022/06/09 05:35:01;;;;;;;10.85;7.90;;;;;;;21.29;71.91;98974.59;4346579;32;34154;-75
2022/06/09 05:44:50;;;;;;;11.82;9.35;;;;;;;21.35;72.44;98975.19;4360251;32;34899;-69
2022/06/09 05:45:49;;;;;;;13.13;9.77;;;;;;;21.96;69.73;98978.09;4343280;33;34298;-76
2022/06/09 05:48:19;;;;;;;11.85;9.35;;;;;;;22.36;66.68;98984.97;4352807;32;33999;-68
2022/06/09 05:50:46;;;;;;;12.75;9.93;;;;;;;20.81;71.87;98987.00;4353560;32;33662;-67
2022/06/09 05:53:14;;;;;;;13.38;9.48;;;;;;;21.66;71.44;98985.75;4347154;33;34723;-71
2022/06/09 05:55:42;;;;;;;14.20;9.98;;;;;;;22.15;68.43;98983.06;4346992;33;34205;-66
2022/06/09 05:58:10;;;;;;;13.27;8.90;;;;;;;22.27;69.18;98985.88;4347579;33;34482;-68
2022/06/09 06:00:38;;;;;;;10.10;8.35;;;;;;;22.41;67.29;98985.50;4359273;32;33402;-73
2022/06/09 06:03:14;;;;;;;11.05;8.32;;;;;;;22.27;67.06;98985.88;4348588;32;34026;-68
2022/06/09 06:08:27;;;;;;;11.65;8.88;;;;;;;22.69;66.34;98982.03;4361662;32;34191;-67
2022/06/09 06:10:56;;;;;;;12.65;8.57;;;;;;;23.15;64.82;98996.44;4362072;32;33744;-67
2022/06/09 06:13:24;;;;;;;13.80;9.52;;;;;;;22.63;65.59;98991.72;4361703;32;34140;-66
2022/06/09 06:15:52;;;;;;;13.68;9.43;;;;;;;22.99;65.64;98999.12;4362129;32;34217;-72
2022/06/09 06:18:27;;;;;;;14.73;10.68;;;;;;;22.32;65.80;99004.19;4359445;32;34203;-67
2022/06/09 06:20:55;;;;;;;15.40;10.35;;;;;;;22.59;64.33;98997.16;4344263;32;33511;-66
2022/06/09 06:23:23;;;;;;;14.93;9.95;;;;;;;22.13;67.01;99000.00;4347429;33;34747;-68
2022/06/09 06:25:55;;;;;;;21.67;11.60;;;;;;;22.16;68.29;98997.69;4347762;33;34358;-67
2022/06/09 06:28:24;;;;;;;18.25;11.27;;;;;;;22.37;67.42;99003.94;4347303;33;34219;-67
2022/06/09 06:30:57;;;;;;;16.90;12.02;;;;;;;22.07;67.77;99000.56;4352115;32;33851;-68
2022/06/09 06:33:25;;;;;;;21.58;13.95;;;;;;;22.17;67.69;99002.06;4362534;32;33682;-66
2022/06/09 06:35:53;;;;;;;21.30;13.82;;;;;;;21.89;67.06;98992.47;4362488;32;35175;-67
2022/06/09 06:38:21;;;;;;;25.17;14.23;;;;;;;21.94;67.77;98990.66;4361043;32;34050;-67
2022/06/09 06:40:49;;;;;;;20.20;12.82;;;;;;;21.84;69.67;98995.47;4347548;33;34698;-68
2022/06/09 06:43:17;;;;;;;19.20;12.13;;;;;;;21.79;69.52;98997.63;4361643;32;34553;-67
2022/06/09 06:45:44;;;;;;;17.85;11.55;;;;;;;21.83;68.62;99004.09;4361983;32;34043;-67
2022/06/09 06:48:12;;;;;;;18.77;11.85;;;;;;;21.88;69.05;99010.22;4362038;32;34094;-67
2022/06/09 06:50:40;;;;;;;19.05;12.70;;;;;;;21.64;71.10;98996.34;4362433;32;34971;-67
2022/06/09 06:53:07;;;;;;;16.23;11.10;;;;;;;21.84;70.87;98992.72;4361491;32;34789;-67
2022/06/09 06:55:35;;;;;;;15.65;10.13;;;;;;;22.14;70.12;98995.28;4362119;32;34712;-68
2022/06/09 06:58:03;;;;;;;14.18;10.38;;;;;;;22.38;69.35;98991.75;4361260;32;34173;-67
2022/06/09 07:00:30;;;;;;;16.12;9.05;;;;;;;22.06;71.18;99005.28;4361954;32;33396;-67
2022/06/09 07:02:58;;;;;;;12.20;8.35;;;;;;;22.08;70.85;99014.03;4352024;32;33840;-65
2022/06/09 07:05:42;;;;;;;9.63;7.15;;;;;;;22.25;70.04;99007.53;4347172;33;34351;-65
2022/06/09 07:08:15;;;;;;;9.80;6.53;;;;;;;21.81;69.16;99007.19;4352422;32;34858;-65
2022/06/09 07:10:44;;;;;;;8.90;6.80;;;;;;;21.42;71.79;99020.41;4354323;32;34424;-65
2022/06/09 07:13:12;;;;;;;8.10;6.22;;;;;;;21.76;70.40;99024.00;4359608;32;32705;-65
2022/06/09 07:15:40;;;;;;;9.80;6.55;;;;;;;21.95;69.93;99031.75;4353513;32;34798;-65
2022/06/09 07:18:09;;;;;;;8.93;6.00;;;;;;;21.42;71.29;99034.22;4361389;32;34314;-66
2022/06/09 07:20:39;;;;;;;10.27;7.10;;;;;;;21.51;72.00;99020.34;4361675;32;34479;-65
2022/06/09 07:23:06;;;;;;;7.45;5.80;;;;;;;20.77;76.04;99002.59;4348185;32;33717;-65
2022/06/09 07:25:35;;;;;;;9.18;6.95;;;;;;;21.17;73.80;99013.97;4361412;32;33679;-66
2022/06/09 07:28:03;;;;;;;9.25;6.35;;;;;;;20.97;74.23;99004.56;4361096;32;33479;-64
2022/06/09 07:30:31;;;;;;;9.85;6.57;;;;;;;20.53;77.08;99003.22;4361663;32;33700;-65
2022/06/09 07:32:58;;;;;;;10.07;6.57;;;;;;;21.09;74.82;99012.88;4361794;32;34082;-65
2022/06/09 07:35:32;;;;;;;9.02;6.82;;;;;;;20.77;76.12;99010.87;4361067;32;34305;-67
2022/06/09 07:38:00;;;;;;;9.77;7.00;;;;;;;20.87;76.31;99027.03;4352074;32;34159;-64
2022/06/09 07:40:27;;;;;;;8.20;6.32;;;;;;;21.27;74.57;99019.09;4346936;33;34660;-67
2022/06/09 07:42:55;;;;;;;9.50;6.12;;;;;;;21.61;74.16;99017.16;4321345;33;33272;-63
2022/06/09 07:45:23;;;;;;;7.95;5.50;;;;;;;21.28;75.73;99026.19;4354676;32;35000;-66
2022/06/09 07:47:51;;;;;;;8.10;5.55;;;;;;;21.72;73.95;99028.56;4360905;32;34107;-65
2022/06/09 07:50:18;;;;;;;8.38;5.57;;;;;;;21.10;75.48;99025.56;4361597;32;34831;-64
2022/06/09 07:52:47;;;;;;;5.62;3.90;;;;;;;21.33;79.30;99014.16;4360361;32;33868;-65
2022/06/09 07:55:15;;;;;;;6.20;3.87;;;;;;;21.16;71.18;99006.03;4352346;32;35951;-67
2022/06/09 07:57:44;;;;;;;5.25;3.25;;;;;;;21.28;74.31;99006.88;4354360;32;34287;-66
2022/06/09 08:00:13;;;;;;;7.80;3.25;;;;;;;21.71;69.18;99022.25;4354266;32;33821;-66
2022/06/09 08:02:43;;;;;;;3.72;2.80;;;;;;;21.39;72.43;99015.56;4353115;32;33997;-65
2022/06/09 08:05:12;;;;;;;3.72;3.03;;;;;;;22.01;68.28;99012.97;4353362;32;33930;-66
2022/06/09 08:07:41;;;;;;;5.85;3.15;;;;;;;22.05;72.02;99009.22;4352534;32;34147;-66
2022/06/09 08:10:09;;;;;;;5.05;3.35;;;;;;;22.25;71.48;99009.50;4353577;32;34051;-66
2022/06/09 08:12:37;;;;;;;7.10;4.05;;;;;;;21.53;74.57;99011.72;4354971;32;33719;-66
2022/06/09 08:15:05;;;;;;;5.78;4.03;;;;;;;22.25;70.34;99013.06;4353104;32;35514;-65
2022/06/09 08:17:33;;;;;;;7.25;4.80;;;;;;;22.34;70.54;99006.59;4353431;32;34126;-66
2022/06/09 08:20:01;;;;;;;7.37;5.12;;;;;;;22.03;70.69;99010.69;4354286;32;33564;-69
2022/06/09 08:22:28;;;;;;;6.22;4.68;;;;;;;21.15;74.27;99012.69;4357484;32;34436;-66
2022/06/09 08:24:56;;;;;;;6.43;4.10;;;;;;;21.95;70.58;99006.09;4352882;32;33921;-66
2022/06/09 08:27:24;;;;;;;6.85;4.62;;;;;;;22.27;70.95;99002.47;4354672;32;34733;-66
2022/06/09 08:29:52;;;;;;;5.85;4.32;;;;;;;22.35;69.63;99005.44;4355083;32;34707;-66
2022/06/09 08:32:19;;;;;;;8.50;5.15;;;;;;;22.38;68.21;99000.03;4355139;32;35489;-65
2022/06/09 08:34:47;;;;;;;9.55;5.62;;;;;;;21.88;72.56;99015.75;4357281;32;34369;-64
2022/06/09 08:37:14;;;;;;;5.55;4.25;;;;;;;22.42;69.52;99005.66;4352879;32;34916;-66
2022/06/09 08:39:42;;;;;;;6.40;4.57;;;;;;;22.06;69.91;99004.50;4354092;32;33815;-65
2022/06/09 08:42:46;;;;;;;2.78;2.20;;;;;;;21.97;71.60;99004.59;4356842;32;34645;-64
2022/06/09 08:45:30;;;;;;;3.53;2.30;;;;;;;22.00;65.34;99006.66;4355129;32;35204;-65
2022/06/09 08:48:00;;;;;;;4.10;2.50;;;;;;;21.28;68.55;99001.38;4338202;32;35082;-67
2022/06/09 08:50:39;;;;;;;3.78;2.92;;;;;;;21.96;68.39;99002.97;4356692;32;33729;-65
2022/06/09 08:53:14;;;;;;;4.30;3.00;;;;;;;21.43;73.31;99004.69;4344363;32;34066;-66
2022/06/09 08:55:47;;;;;;;5.20;3.22;;;;;;;21.14;68.10;98994.53;4342141;32;34316;-65
2022/06/09 08:58:39;;;;;;;4.30;3.08;;;;;;;21.81;67.66;98998.91;4353271;32;34645;-66
2022/06/09 09:01:22;;;;;;;4.35;3.12;;;;;;;22.08;66.74;99002.19;4353792;32;33485;-65
2022/06/09 09:03:56;;;;;;;6.15;4.12;;;;;;;21.87;65.94;98999.50;4353266;32;34841;-65
2022/06/09 09:06:28;;;;;;;5.30;4.07;;;;;;;21.89;68.45;98998.00;4350283;32;34252;-67
2022/06/09 09:09:11;;;;;;;6.00;4.32;;;;;;;22.06;70.88;98998.97;4339705;32;33905;-66
2022/06/09 09:11:41;;;;;;;6.72;4.53;;;;;;;22.25;68.02;98992.91;4352093;32;33634;-69
2022/06/09 09:14:15;;;;;;;6.50;4.40;;;;;;;22.25;67.66;98995.66;4352555;32;34075;-67
2022/06/09 09:16:49;;;;;;;7.53;4.70;;;;;;;22.38;66.78;98996.47;4348404;32;33915;-68
2022/06/09 09:19:26;;;;;;;5.32;3.70;;;;;;;22.20;66.87;98993.91;4342989;32;34295;-67
2022/06/09 09:22:02;;;;;;;7.12;4.32;;;;;;;22.22;66.79;98986.09;4339572;32;33609;-67
2022/06/09 09:24:39;;;;;;;6.53;4.37;;;;;;;22.48;66.37;98985.75;4341977;32;33996;-67
2022/06/09 09:27:18;;;;;;;6.70;3.92;;;;;;;21.77;69.31;98980.59;4351990;32;34322;-68
2022/06/09 09:29:47;;;;;;;5.53;3.47;;;;;;;22.26;67.75;98980.69;4341368;32;35122;-68
2022/06/09 09:32:24;;;;;;;5.75;3.80;;;;;;;22.35;63.83;98978.59;4353472;32;34399;-67
2022/06/09 09:34:52;;;;;;;6.90;4.07;;;;;;;23.05;64.25;98980.37;4339833;32;33560;-68
2022/06/09 09:37:37;;;;;;;3.97;2.70;;;;;;;22.73;66.26;98958.06;4340099;32;34732;-68
2022/06/09 09:40:11;;;;;;;6.32;3.03;;;;;;;22.48;61.90;98976.62;4352261;32;35264;-68
2022/06/09 09:42:42;;;;;;;7.57;3.33;;;;;;;22.17;63.00;98979.97;4353191;32;33863;-75
2022/06/09 09:45:10;;;;;;;5.78;3.85;;;;;;;22.39;64.83;98974.00;4341736;32;33592;-67
2022/06/09 09:47:54;;;;;;;5.62;3.97;;;;;;;22.23;67.29;98981.41;4354968;32;34216;-66
2022/06/09 09:50:37;;;;;;;8.82;3.75;;;;;;;23.02;66.52;98973.56;4352239;32;34825;-67
2022/06/09 09:53:17;;;;;;;5.57;4.03;;;;;;;23.29;66.96;98971.16;4338385;32;33406;-66
2022/06/09 09:55:55;;;;;;;6.00;3.60;;;;;;;23.71;64.31;98977.06;4354406;32;35344;-68
2022/06/09 09:58:39;;;;;;;4.65;3.17;;;;;;;23.16;65.92;98981.47;4353155;32;34120;-69
2022/06/09 10:01:16;;;;;;;;;;;;;;;23.24;62.11;98976.94;4355526;32;35006;-66
2022/06/09 10:09:42;;;;;;;5.00;3.53;;;;;;;23.48;59.70;98949.16;4342395;32;34237;-66
2022/06/09 10:12:30;;;;;;;5.12;3.50;;;;;;;23.43;62.88;98945.81;4339867;32;34574;-66
2022/06/09 10:15:18;;;;;;;5.05;3.53;;;;;;;23.67;61.32;98939.31;4355338;32;33331;-66
2022/06/09 10:18:17;;;;;;;5.65;3.67;;;;;;;23.70;61.61;98931.12;4340335;32;33635;-66
2022/06/09 10:21:06;;;;;;;6.60;3.92;;;;;;;23.67;63.15;98944.88;4339962;32;34172;-71
2022/06/09 10:24:00;;;;;;;6.32;3.87;;;;;;;23.83;59.44;98948.50;4351485;32;34351;-67
2022/06/09 10:26:35;;;;;;;7.68;4.40;;;;;;;23.65;58.93;98956.31;4342251;32;33619;-66
2022/06/09 10:29:21;;;;;;;5.85;4.05;;;;;;;23.65;57.00;98947.19;4362011;32;33848;-65
2022/06/09 10:31:57;;;;;;;5.60;3.87;;;;;;;24.00;57.71;98949.31;4349452;32;34916;-66
2022/06/09 10:35:06;;;;;;;7.35;4.60;;;;;;;23.60;62.22;98947.47;4349597;32;33511;-65
2022/06/09 10:38:09;;;;;;;7.00;4.90;;;;;;;23.50;60.79;98954.34;4334475;33;33708;-67
2022/06/09 10:40:53;;;;;;;5.62;4.28;;;;;;;23.80;59.07;98951.16;4347490;33;33755;-65
2022/06/09 10:43:38;;;;;;;5.22;4.03;;;;;;;23.77;59.07;98943.56;4347190;33;33879;-66
2022/06/09 10:46:19;;;;;;;5.57;4.28;;;;;;;23.70;59.62;98941.41;4351016;32;35446;-66
2022/06/09 10:55:26;;;;;;;5.95;4.10;;;;;;;23.72;60.22;98911.37;4342391;32;34244;-69
2022/06/09 10:58:13;;;;;;;5.50;4.10;;;;;;;23.57;60.23;98906.66;4353488;32;33849;-66
2022/06/09 11:00:45;;;;;;;6.10;4.30;;;;;;;23.96;56.63;98910.41;4355141;32;32332;-66
2022/06/09 11:03:31;;;;;;;7.55;4.65;;;;;;;24.34;57.00;98909.75;4355443;32;33886;-66
2022/06/09 11:06:14;;;;;;;5.45;3.83;;;;;;;24.07;57.20;98911.47;4352480;32;33981;-65
2022/06/09 11:09:00;;;;;;;6.72;4.30;;;;;;;23.85;56.90;98912.13;4355225;32;34978;-67
2022/06/09 11:12:06;;;;;;;6.20;4.40;;;;;;;24.06;55.43;98911.81;4353495;32;33758;-72
2022/06/09 11:14:40;;;;;;;4.87;3.95;;;;;;;24.70;56.98;98906.97;4337269;32;33629;-68
2022/06/09 11:18:06;;;;;;;5.80;4.00;;;;;;;25.38;57.20;98911.13;4354455;32;35079;-67
2022/06/09 11:20:43;;;;;;;6.30;4.60;;;;;;;25.45;55.09;98907.66;4320133;33;34495;-66
2022/06/09 11:23:36;;;;;;;6.12;4.28;;;;;;;25.01;55.69;98897.69;4348542;32;33830;-69
2022/06/09 11:26:11;;;;;;;5.93;3.87;;;;;;;25.38;54.25;98898.03;4354970;32;34750;-66
2022/06/09 11:29:13;;;;;;;5.97;4.25;;;;;;;24.85;53.25;98874.78;4353690;32;34081;-74
2022/06/09 11:32:11;;;;;;;5.45;4.05;;;;;;;25.23;53.96;98870.38;4355362;32;34985;-66
2022/06/09 11:34:58;;;;;;;5.32;3.87;;;;;;;25.26;56.70;98881.53;4353590;32;33650;-66
2022/06/09 11:37:46;;;;;;;6.70;4.15;;;;;;;25.22;56.14;98869.56;4354130;32;33985;-66
2022/06/09 11:40:20;;;;;;;6.50;4.57;;;;;;;25.41;54.71;98871.50;4340818;32;34449;-66
2022/06/09 11:43:00;;;;;;;5.53;4.28;;;;;;;25.33;55.05;98872.53;4354121;32;34325;-66
2022/06/09 11:45:32;;;;;;;4.55;3.47;;;;;;;25.33;55.01;98876.09;4338202;32;33441;-66
2022/06/09 11:48:02;;;;;;;5.40;4.25;;;;;;;25.11;55.33;98872.09;4353396;32;33804;-71
2022/06/09 11:50:39;;;;;;;6.05;4.55;;;;;;;24.97;56.95;98869.06;4339881;32;34156;-67
2022/06/09 11:53:07;;;;;;;6.20;4.32;;;;;;;24.49;59.91;98872.06;4342297;32;34325;-74
2022/06/09 11:56:00;;;;;;;5.45;4.07;;;;;;;23.22;65.32;98866.59;4340622;32;34932;-68
2022/06/09 11:58:33;;;;;;;6.10;3.78;;;;;;;22.61;65.02;98875.94;4354670;32;34022;-69
2022/06/09 12:01:40;;;;;;;5.15;3.67;;;;;;;21.17;71.27;98947.78;4351643;32;34197;-69
2022/06/09 12:04:57;;;;;;;3.17;2.00;;;;;;;20.90;70.64;99012.56;4342850;32;34771;-70
2022/06/09 12:07:40;;;;;;;3.20;1.90;;;;;;;19.85;70.21;99037.84;4339803;32;33773;-70
2022/06/09 12:10:27;;;;;;;1.77;1.20;;;;;;;18.02;78.18;99001.91;4352791;32;34014;-75
2022/06/09 12:13:18;;;;;;;2.33;1.50;;;;;;;18.53;71.44;98941.13;4353231;32;33842;-72
2022/06/09 12:15:51;;;;;;;1.95;1.62;;;;;;;18.67;74.96;98908.81;4353893;32;35057;-68